Terminal Aerodrome Forecast
Issued by NWS Wilmington, OH

Home | Current Version | Previous Version | Text Only | Print | Product List | Glossary On
Versions: 1 2 3 4 5 6 7 8 9 10 11 12 13 14 15 16 17 18 19 20 21 22 23 24
000
FTUS41 KILN 281137
TAFCVG
TAF
KCVG 281137Z 2812/2918 12005KT P6SM SCT120 OVC220
     FM282000 14008KT P6SM VCSH SCT035 BKN180
     FM290100 18010KT P6SM -SHRA VCTS BKN035CB
     FM290500 21010KT P6SM VCTS OVC035CB WS020/23040KT
     FM290700 21009KT P6SM VCTS OVC025CB
     FM290900 20008KT P6SM VCSH OVC016
     FM291600 20007KT P6SM BKN035=

USA.gov is the U.S. government's official web portal to all federal, state and local government web resources and services.